sensor_id;sensor_type;location;lat;lon;timestamp;P1;durP1;ratioP1;P2;durP2;ratioP2
62463;SDS011;48512;48.552;9.380;2022-12-28T00:00:26;7.20;;;3.33;;
62463;SDS011;48512;48.552;9.380;2022-12-28T00:02:54;6.80;;;3.30;;
62463;SDS011;48512;48.552;9.380;2022-12-28T00:05:20;6.55;;;3.35;;
62463;SDS011;48512;48.552;9.380;2022-12-28T00:07:46;8.02;;;3.03;;
62463;SDS011;48512;48.552;9.380;2022-12-28T00:10:11;4.70;;;3.00;;
62463;SDS011;48512;48.552;9.380;2022-12-28T00:12:39;3.70;;;2.33;;
62463;SDS011;48512;48.552;9.380;2022-12-28T00:15:05;5.53;;;3.08;;
62463;SDS011;48512;48.552;9.380;2022-12-28T00:17:30;5.35;;;2.95;;
62463;SDS011;48512;48.552;9.380;2022-12-28T00:19:56;2.92;;;2.38;;
62463;SDS011;48512;48.552;9.380;2022-12-28T00:22:23;3.45;;;2.10;;
62463;SDS011;48512;48.552;9.380;2022-12-28T00:24:51;2.92;;;1.95;;
62463;SDS011;48512;48.552;9.380;2022-12-28T00:27:16;3.63;;;2.10;;
62463;SDS011;48512;48.552;9.380;2022-12-28T00:29:42;5.72;;;2.10;;
62463;SDS011;48512;48.552;9.380;2022-12-28T00:32:07;2.78;;;1.90;;
62463;SDS011;48512;48.552;9.380;2022-12-28T00:34:32;3.85;;;1.70;;
62463;SDS011;48512;48.552;9.380;2022-12-28T00:36:58;2.55;;;1.77;;
62463;SDS011;48512;48.552;9.380;2022-12-28T00:39:23;3.83;;;2.10;;
62463;SDS011;48512;48.552;9.380;2022-12-28T00:41:51;4.10;;;2.13;;
62463;SDS011;48512;48.552;9.380;2022-12-28T00:44:21;3.15;;;1.80;;
62463;SDS011;48512;48.552;9.380;2022-12-28T00:46:49;4.22;;;2.28;;
62463;SDS011;48512;48.552;9.380;2022-12-28T00:49:14;2.15;;;1.90;;
62463;SDS011;48512;48.552;9.380;2022-12-28T00:51:39;3.60;;;1.75;;
62463;SDS011;48512;48.552;9.380;2022-12-28T00:54:07;3.58;;;1.77;;
62463;SDS011;48512;48.552;9.380;2022-12-28T00:56:33;3.50;;;1.92;;
62463;SDS011;48512;48.552;9.380;2022-12-28T00:58:58;5.22;;;1.73;;
62463;SDS011;48512;48.552;9.380;2022-12-28T01:01:25;5.75;;;1.88;;
62463;SDS011;48512;48.552;9.380;2022-12-28T01:03:54;4.90;;;1.63;;
62463;SDS011;48512;48.552;9.380;2022-12-28T01:06:20;2.65;;;1.42;;
62463;SDS011;48512;48.552;9.380;2022-12-28T01:08:50;2.13;;;1.50;;
62463;SDS011;48512;48.552;9.380;2022-12-28T01:11:17;3.33;;;1.60;;
62463;SDS011;48512;48.552;9.380;2022-12-28T01:13:51;4.45;;;1.65;;
62463;SDS011;48512;48.552;9.380;2022-12-28T01:16:21;4.43;;;1.77;;
62463;SDS011;48512;48.552;9.380;2022-12-28T01:18:52;2.30;;;1.27;;
62463;SDS011;48512;48.552;9.380;2022-12-28T01:21:20;3.05;;;1.45;;
62463;SDS011;48512;48.552;9.380;2022-12-28T01:23:47;1.85;;;1.63;;
62463;SDS011;48512;48.552;9.380;2022-12-28T01:26:15;2.22;;;1.60;;
62463;SDS011;48512;48.552;9.380;2022-12-28T01:28:41;2.33;;;1.30;;
62463;SDS011;48512;48.552;9.380;2022-12-28T01:31:10;1.88;;;1.42;;
62463;SDS011;48512;48.552;9.380;2022-12-28T01:33:38;2.30;;;1.40;;
62463;SDS011;48512;48.552;9.380;2022-12-28T01:36:07;1.42;;;1.10;;
62463;SDS011;48512;48.552;9.380;2022-12-28T01:38:36;6.43;;;1.80;;
62463;SDS011;48512;48.552;9.380;2022-12-28T01:41:07;3.92;;;1.52;;
62463;SDS011;48512;48.552;9.380;2022-12-28T01:46:18;1.58;;;1.30;;
62463;SDS011;48512;48.552;9.380;2022-12-28T01:48:49;2.55;;;1.75;;
62463;SDS011;48512;48.552;9.380;2022-12-28T01:51:22;1.65;;;1.50;;
62463;SDS011;48512;48.552;9.380;2022-12-28T01:53:50;1.98;;;1.60;;
62463;SDS011;48512;48.552;9.380;2022-12-28T01:56:18;2.70;;;1.48;;
62463;SDS011;48512;48.552;9.380;2022-12-28T01:58:45;2.63;;;1.70;;
62463;SDS011;48512;48.552;9.380;2022-12-28T02:01:11;2.17;;;1.60;;
62463;SDS011;48512;48.552;9.380;2022-12-28T02:03:43;3.85;;;1.40;;
62463;SDS011;48512;48.552;9.380;2022-12-28T02:06:12;3.45;;;1.55;;
62463;SDS011;48512;48.552;9.380;2022-12-28T02:08:39;2.25;;;1.70;;
62463;SDS011;48512;48.552;9.380;2022-12-28T02:11:10;3.03;;;1.98;;
62463;SDS011;48512;48.552;9.380;2022-12-28T02:13:41;2.38;;;1.50;;
62463;SDS011;48512;48.552;9.380;2022-12-28T02:16:09;3.78;;;1.58;;
62463;SDS011;48512;48.552;9.380;2022-12-28T02:18:38;3.03;;;1.63;;
62463;SDS011;48512;48.552;9.380;2022-12-28T02:23:41;2.17;;;1.80;;
62463;SDS011;48512;48.552;9.380;2022-12-28T02:34:31;3.10;;;1.95;;
62463;SDS011;48512;48.552;9.380;2022-12-28T02:37:03;4.88;;;2.33;;
62463;SDS011;48512;48.552;9.380;2022-12-28T02:39:37;2.53;;;2.10;;
62463;SDS011;48512;48.552;9.380;2022-12-28T02:42:08;5.13;;;2.25;;
62463;SDS011;48512;48.552;9.380;2022-12-28T02:44:35;4.45;;;2.50;;
62463;SDS011;48512;48.552;9.380;2022-12-28T02:47:19;3.92;;;2.42;;
62463;SDS011;48512;48.552;9.380;2022-12-28T02:50:07;2.38;;;1.95;;
62463;SDS011;48512;48.552;9.380;2022-12-28T03:09:51;6.35;;;2.22;;
62463;SDS011;48512;48.552;9.380;2022-12-28T03:12:32;3.75;;;1.92;;
62463;SDS011;48512;48.552;9.380;2022-12-28T03:15:07;3.80;;;2.05;;
62463;SDS011;48512;48.552;9.380;2022-12-28T03:17:37;3.63;;;2.10;;
62463;SDS011;48512;48.552;9.380;2022-12-28T03:20:25;5.10;;;2.50;;
62463;SDS011;48512;48.552;9.380;2022-12-28T03:23:14;4.68;;;2.20;;
62463;SDS011;48512;48.552;9.380;2022-12-28T03:26:00;3.55;;;1.80;;
62463;SDS011;48512;48.552;9.380;2022-12-28T03:28:47;1.63;;;1.52;;
62463;SDS011;48512;48.552;9.380;2022-12-28T03:31:33;3.33;;;1.73;;
62463;SDS011;48512;48.552;9.380;2022-12-28T03:34:03;3.83;;;2.10;;
62463;SDS011;48512;48.552;9.380;2022-12-28T03:42:00;4.88;;;2.10;;
62463;SDS011;48512;48.552;9.380;2022-12-28T03:44:47;2.55;;;1.60;;
62463;SDS011;48512;48.552;9.380;2022-12-28T03:47:21;4.63;;;1.60;;
62463;SDS011;48512;48.552;9.380;2022-12-28T03:49:49;2.38;;;1.88;;
62463;SDS011;48512;48.552;9.380;2022-12-28T03:52:17;2.00;;;1.70;;
62463;SDS011;48512;48.552;9.380;2022-12-28T03:54:42;4.55;;;1.65;;
62463;SDS011;48512;48.552;9.380;2022-12-28T03:57:08;3.15;;;1.70;;
62463;SDS011;48512;48.552;9.380;2022-12-28T03:59:36;2.13;;;1.40;;
62463;SDS011;48512;48.552;9.380;2022-12-28T04:02:01;2.17;;;1.50;;
62463;SDS011;48512;48.552;9.380;2022-12-28T04:04:27;1.60;;;1.33;;
62463;SDS011;48512;48.552;9.380;2022-12-28T04:06:52;2.78;;;1.40;;
62463;SDS011;48512;48.552;9.380;2022-12-28T04:09:22;3.50;;;1.55;;
62463;SDS011;48512;48.552;9.380;2022-12-28T04:11:47;2.17;;;1.48;;
62463;SDS011;48512;48.552;9.380;2022-12-28T04:14:13;2.15;;;1.25;;
62463;SDS011;48512;48.552;9.380;2022-12-28T04:16:41;3.40;;;1.50;;
62463;SDS011;48512;48.552;9.380;2022-12-28T04:19:09;4.13;;;1.30;;
62463;SDS011;48512;48.552;9.380;2022-12-28T04:21:34;4.75;;;1.55;;
62463;SDS011;48512;48.552;9.380;2022-12-28T04:24:02;2.42;;;1.50;;
62463;SDS011;48512;48.552;9.380;2022-12-28T04:26:27;3.00;;;1.38;;
62463;SDS011;48512;48.552;9.380;2022-12-28T04:28:53;4.28;;;1.50;;
62463;SDS011;48512;48.552;9.380;2022-12-28T04:31:18;5.10;;;1.50;;
62463;SDS011;48512;48.552;9.380;2022-12-28T04:33:46;2.15;;;1.17;;
62463;SDS011;48512;48.552;9.380;2022-12-28T04:36:12;3.33;;;1.40;;
62463;SDS011;48512;48.552;9.380;2022-12-28T04:38:39;3.33;;;1.60;;
62463;SDS011;48512;48.552;9.380;2022-12-28T04:41:06;3.75;;;1.48;;
62463;SDS011;48512;48.552;9.380;2022-12-28T04:43:33;5.28;;;1.40;;
62463;SDS011;48512;48.552;9.380;2022-12-28T04:46:05;2.00;;;1.38;;
62463;SDS011;48512;48.552;9.380;2022-12-28T04:48:32;2.42;;;1.20;;
62463;SDS011;48512;48.552;9.380;2022-12-28T04:51:04;3.28;;;1.65;;
62463;SDS011;48512;48.552;9.380;2022-12-28T04:53:30;9.30;;;2.33;;
62463;SDS011;48512;48.552;9.380;2022-12-28T04:55:55;3.08;;;2.10;;
62463;SDS011;48512;48.552;9.380;2022-12-28T04:58:31;3.40;;;1.60;;
62463;SDS011;48512;48.552;9.380;2022-12-28T05:01:04;3.90;;;1.48;;
62463;SDS011;48512;48.552;9.380;2022-12-28T05:03:31;5.03;;;1.67;;
62463;SDS011;48512;48.552;9.380;2022-12-28T05:06:00;3.22;;;1.67;;
62463;SDS011;48512;48.552;9.380;2022-12-28T05:08:29;7.00;;;2.55;;
62463;SDS011;48512;48.552;9.380;2022-12-28T05:10:58;4.10;;;2.00;;
62463;SDS011;48512;48.552;9.380;2022-12-28T05:13:24;6.78;;;2.30;;
62463;SDS011;48512;48.552;9.380;2022-12-28T05:15:52;5.63;;;2.20;;
62463;SDS011;48512;48.552;9.380;2022-12-28T05:18:17;4.22;;;2.00;;
62463;SDS011;48512;48.552;9.380;2022-12-28T05:20:43;2.85;;;1.90;;
62463;SDS011;48512;48.552;9.380;2022-12-28T05:23:11;4.30;;;2.22;;
62463;SDS011;48512;48.552;9.380;2022-12-28T05:25:36;4.55;;;2.50;;
62463;SDS011;48512;48.552;9.380;2022-12-28T05:28:02;5.20;;;2.42;;
62463;SDS011;48512;48.552;9.380;2022-12-28T05:30:32;4.85;;;2.30;;
62463;SDS011;48512;48.552;9.380;2022-12-28T05:32:57;4.30;;;1.80;;
62463;SDS011;48512;48.552;9.380;2022-12-28T05:35:23;4.97;;;2.03;;
62463;SDS011;48512;48.552;9.380;2022-12-28T05:37:48;5.20;;;2.67;;
62463;SDS011;48512;48.552;9.380;2022-12-28T05:40:13;4.97;;;2.95;;
62463;SDS011;48512;48.552;9.380;2022-12-28T05:42:41;4.85;;;2.53;;
62463;SDS011;48512;48.552;9.380;2022-12-28T05:45:09;5.35;;;2.17;;
62463;SDS011;48512;48.552;9.380;2022-12-28T05:47:36;5.13;;;2.30;;
62463;SDS011;48512;48.552;9.380;2022-12-28T05:50:02;3.83;;;2.08;;
62463;SDS011;48512;48.552;9.380;2022-12-28T05:52:27;3.80;;;2.33;;
62463;SDS011;48512;48.552;9.380;2022-12-28T05:54:54;4.53;;;1.92;;
62463;SDS011;48512;48.552;9.380;2022-12-28T05:57:22;4.47;;;2.65;;
62463;SDS011;48512;48.552;9.380;2022-12-28T05:59:47;4.75;;;2.97;;
62463;SDS011;48512;48.552;9.380;2022-12-28T06:02:13;8.15;;;3.30;;
62463;SDS011;48512;48.552;9.380;2022-12-28T06:04:38;3.17;;;2.53;;
62463;SDS011;48512;48.552;9.380;2022-12-28T06:07:04;3.67;;;2.60;;
62463;SDS011;48512;48.552;9.380;2022-12-28T06:09:29;5.32;;;2.78;;
62463;SDS011;48512;48.552;9.380;2022-12-28T06:11:54;5.78;;;2.90;;
62463;SDS011;48512;48.552;9.380;2022-12-28T06:14:20;7.68;;;3.13;;
62463;SDS011;48512;48.552;9.380;2022-12-28T06:16:47;5.25;;;3.08;;
62463;SDS011;48512;48.552;9.380;2022-12-28T06:19:13;7.10;;;3.35;;
62463;SDS011;48512;48.552;9.380;2022-12-28T06:21:42;8.02;;;3.25;;
62463;SDS011;48512;48.552;9.380;2022-12-28T06:24:07;10.25;;;4.25;;
62463;SDS011;48512;48.552;9.380;2022-12-28T06:26:34;5.13;;;3.30;;
62463;SDS011;48512;48.552;9.380;2022-12-28T06:29:01;6.57;;;3.00;;
62463;SDS011;48512;48.552;9.380;2022-12-28T06:31:27;4.57;;;2.35;;
62463;SDS011;48512;48.552;9.380;2022-12-28T06:33:56;5.35;;;3.45;;
62463;SDS011;48512;48.552;9.380;2022-12-28T06:36:24;8.13;;;4.18;;
62463;SDS011;48512;48.552;9.380;2022-12-28T06:38:52;6.00;;;3.42;;
62463;SDS011;48512;48.552;9.380;2022-12-28T06:41:21;7.65;;;3.67;;
62463;SDS011;48512;48.552;9.380;2022-12-28T06:43:47;9.32;;;3.70;;
62463;SDS011;48512;48.552;9.380;2022-12-28T06:46:13;6.70;;;3.17;;
62463;SDS011;48512;48.552;9.380;2022-12-28T06:48:39;7.40;;;4.15;;
62463;SDS011;48512;48.552;9.380;2022-12-28T06:51:27;9.75;;;4.53;;
62463;SDS011;48512;48.552;9.380;2022-12-28T06:56:22;5.63;;;3.22;;
62463;SDS011;48512;48.552;9.380;2022-12-28T06:58:50;8.30;;;3.63;;
62463;SDS011;48512;48.552;9.380;2022-12-28T07:01:20;5.60;;;3.15;;
62463;SDS011;48512;48.552;9.380;2022-12-28T07:03:52;5.20;;;2.97;;
62463;SDS011;48512;48.552;9.380;2022-12-28T07:06:20;9.27;;;3.92;;
62463;SDS011;48512;48.552;9.380;2022-12-28T07:08:50;7.97;;;3.67;;
62463;SDS011;48512;48.552;9.380;2022-12-28T07:11:19;7.88;;;3.40;;
62463;SDS011;48512;48.552;9.380;2022-12-28T07:13:47;8.70;;;4.35;;
62463;SDS011;48512;48.552;9.380;2022-12-28T07:16:14;6.80;;;3.95;;
62463;SDS011;48512;48.552;9.380;2022-12-28T07:18:41;5.45;;;3.10;;
62463;SDS011;48512;48.552;9.380;2022-12-28T07:21:08;6.25;;;2.92;;
62463;SDS011;48512;48.552;9.380;2022-12-28T07:23:36;14.90;;;3.33;;
62463;SDS011;48512;48.552;9.380;2022-12-28T07:26:11;6.03;;;3.40;;
62463;SDS011;48512;48.552;9.380;2022-12-28T07:28:39;3.78;;;2.42;;
62463;SDS011;48512;48.552;9.380;2022-12-28T07:31:08;4.53;;;3.13;;
62463;SDS011;48512;48.552;9.380;2022-12-28T07:33:38;5.47;;;3.28;;
62463;SDS011;48512;48.552;9.380;2022-12-28T07:36:05;6.60;;;3.28;;
62463;SDS011;48512;48.552;9.380;2022-12-28T07:38:32;6.55;;;3.05;;
62463;SDS011;48512;48.552;9.380;2022-12-28T07:41:08;4.63;;;2.85;;
62463;SDS011;48512;48.552;9.380;2022-12-28T07:43:37;5.47;;;2.95;;
62463;SDS011;48512;48.552;9.380;2022-12-28T07:46:06;5.35;;;2.80;;
62463;SDS011;48512;48.552;9.380;2022-12-28T07:48:40;4.10;;;2.67;;
62463;SDS011;48512;48.552;9.380;2022-12-28T07:51:08;4.15;;;2.95;;
62463;SDS011;48512;48.552;9.380;2022-12-28T07:53:36;7.20;;;4.22;;
62463;SDS011;48512;48.552;9.380;2022-12-28T07:56:02;5.15;;;3.30;;
62463;SDS011;48512;48.552;9.380;2022-12-28T07:58:31;10.18;;;4.53;;
62463;SDS011;48512;48.552;9.380;2022-12-28T08:01:18;9.52;;;4.30;;
62463;SDS011;48512;48.552;9.380;2022-12-28T08:06:13;8.38;;;4.90;;
62463;SDS011;48512;48.552;9.380;2022-12-28T08:08:44;9.20;;;4.68;;
62463;SDS011;48512;48.552;9.380;2022-12-28T08:11:11;9.10;;;5.10;;
62463;SDS011;48512;48.552;9.380;2022-12-28T08:13:39;10.15;;;5.72;;
62463;SDS011;48512;48.552;9.380;2022-12-28T08:16:06;10.85;;;6.07;;
62463;SDS011;48512;48.552;9.380;2022-12-28T08:18:33;13.85;;;7.70;;
62463;SDS011;48512;48.552;9.380;2022-12-28T08:21:02;17.73;;;7.45;;
62463;SDS011;48512;48.552;9.380;2022-12-28T08:23:34;17.20;;;8.70;;
62463;SDS011;48512;48.552;9.380;2022-12-28T08:28:46;15.23;;;7.15;;
62463;SDS011;48512;48.552;9.380;2022-12-28T08:31:14;14.50;;;7.28;;
62463;SDS011;48512;48.552;9.380;2022-12-28T08:33:42;15.18;;;7.60;;
62463;SDS011;48512;48.552;9.380;2022-12-28T08:36:07;25.27;;;8.68;;
62463;SDS011;48512;48.552;9.380;2022-12-28T08:38:34;15.55;;;6.43;;
62463;SDS011;48512;48.552;9.380;2022-12-28T08:41:01;18.08;;;7.57;;
62463;SDS011;48512;48.552;9.380;2022-12-28T08:43:29;10.60;;;6.05;;
62463;SDS011;48512;48.552;9.380;2022-12-28T08:45:58;8.73;;;4.88;;
62463;SDS011;48512;48.552;9.380;2022-12-28T08:48:29;9.98;;;5.90;;
62463;SDS011;48512;48.552;9.380;2022-12-28T08:50:59;11.93;;;6.00;;
62463;SDS011;48512;48.552;9.380;2022-12-28T08:53:34;11.68;;;5.85;;
62463;SDS011;48512;48.552;9.380;2022-12-28T08:56:05;9.85;;;5.30;;
62463;SDS011;48512;48.552;9.380;2022-12-28T08:58:37;11.57;;;5.53;;
62463;SDS011;48512;48.552;9.380;2022-12-28T09:01:14;10.65;;;5.40;;
62463;SDS011;48512;48.552;9.380;2022-12-28T09:03:42;11.98;;;5.65;;
62463;SDS011;48512;48.552;9.380;2022-12-28T09:06:10;9.70;;;5.60;;
62463;SDS011;48512;48.552;9.380;2022-12-28T09:08:38;11.48;;;6.22;;
62463;SDS011;48512;48.552;9.380;2022-12-28T09:11:06;11.75;;;6.30;;
62463;SDS011;48512;48.552;9.380;2022-12-28T09:13:36;10.50;;;5.75;;
62463;SDS011;48512;48.552;9.380;2022-12-28T09:16:02;9.48;;;5.60;;
62463;SDS011;48512;48.552;9.380;2022-12-28T09:18:32;10.95;;;5.90;;
62463;SDS011;48512;48.552;9.380;2022-12-28T09:21:11;12.98;;;7.03;;
62463;SDS011;48512;48.552;9.380;2022-12-28T09:23:39;12.82;;;6.80;;
62463;SDS011;48512;48.552;9.380;2022-12-28T09:26:06;13.57;;;6.75;;
62463;SDS011;48512;48.552;9.380;2022-12-28T09:28:32;11.45;;;6.20;;
62463;SDS011;48512;48.552;9.380;2022-12-28T09:31:00;9.80;;;5.68;;
62463;SDS011;48512;48.552;9.380;2022-12-28T09:33:27;10.25;;;5.75;;
62463;SDS011;48512;48.552;9.380;2022-12-28T09:36:11;10.35;;;5.70;;
62463;SDS011;48512;48.552;9.380;2022-12-28T09:38:36;14.73;;;6.43;;
62463;SDS011;48512;48.552;9.380;2022-12-28T09:41:08;13.75;;;6.22;;
62463;SDS011;48512;48.552;9.380;2022-12-28T09:43:46;11.65;;;5.95;;
62463;SDS011;48512;48.552;9.380;2022-12-28T09:46:14;9.82;;;5.85;;
62463;SDS011;48512;48.552;9.380;2022-12-28T09:48:46;9.40;;;5.38;;
62463;SDS011;48512;48.552;9.380;2022-12-28T09:51:18;11.52;;;6.00;;
62463;SDS011;48512;48.552;9.380;2022-12-28T09:53:54;9.85;;;5.65;;
62463;SDS011;48512;48.552;9.380;2022-12-28T09:56:23;11.40;;;6.28;;
62463;SDS011;48512;48.552;9.380;2022-12-28T09:58:53;10.70;;;5.75;;
62463;SDS011;48512;48.552;9.380;2022-12-28T10:01:20;8.75;;;5.60;;
62463;SDS011;48512;48.552;9.380;2022-12-28T10:03:46;10.45;;;6.55;;
62463;SDS011;48512;48.552;9.380;2022-12-28T10:06:23;7.63;;;4.70;;
62463;SDS011;48512;48.552;9.380;2022-12-28T10:08:52;20.92;;;8.55;;
62463;SDS011;48512;48.552;9.380;2022-12-28T10:11:21;9.20;;;5.30;;
62463;SDS011;48512;48.552;9.380;2022-12-28T10:13:53;13.18;;;6.22;;
62463;SDS011;48512;48.552;9.380;2022-12-28T10:16:20;9.68;;;5.45;;
62463;SDS011;48512;48.552;9.380;2022-12-28T10:18:47;7.78;;;5.15;;
62463;SDS011;48512;48.552;9.380;2022-12-28T10:21:19;9.73;;;5.65;;
62463;SDS011;48512;48.552;9.380;2022-12-28T10:23:48;11.10;;;6.35;;
62463;SDS011;48512;48.552;9.380;2022-12-28T10:26:18;7.93;;;5.47;;
62463;SDS011;48512;48.552;9.380;2022-12-28T10:28:48;9.00;;;5.50;;
62463;SDS011;48512;48.552;9.380;2022-12-28T10:31:17;11.30;;;5.85;;
62463;SDS011;48512;48.552;9.380;2022-12-28T10:33:56;7.75;;;4.80;;
62463;SDS011;48512;48.552;9.380;2022-12-28T10:36:24;7.78;;;5.03;;
62463;SDS011;48512;48.552;9.380;2022-12-28T10:41:22;12.65;;;5.63;;
62463;SDS011;48512;48.552;9.380;2022-12-28T10:44:06;8.63;;;4.68;;
62463;SDS011;48512;48.552;9.380;2022-12-28T10:46:38;7.88;;;4.05;;
62463;SDS011;48512;48.552;9.380;2022-12-28T10:49:16;6.05;;;3.65;;
62463;SDS011;48512;48.552;9.380;2022-12-28T10:51:41;6.82;;;3.97;;
62463;SDS011;48512;48.552;9.380;2022-12-28T10:54:30;6.57;;;3.40;;
62463;SDS011;48512;48.552;9.380;2022-12-28T10:57:03;4.80;;;3.22;;
62463;SDS011;48512;48.552;9.380;2022-12-28T10:59:29;4.22;;;2.83;;
62463;SDS011;48512;48.552;9.380;2022-12-28T11:02:40;4.20;;;3.25;;
62463;SDS011;48512;48.552;9.380;2022-12-28T11:04:53;5.35;;;3.50;;
62463;SDS011;48512;48.552;9.380;2022-12-28T11:07:25;3.88;;;3.08;;
62463;SDS011;48512;48.552;9.380;2022-12-28T11:10:10;7.50;;;3.20;;
62463;SDS011;48512;48.552;9.380;2022-12-28T11:12:52;6.90;;;4.28;;
62463;SDS011;48512;48.552;9.380;2022-12-28T11:15:20;7.22;;;3.90;;
62463;SDS011;48512;48.552;9.380;2022-12-28T11:17:55;5.05;;;3.65;;
62463;SDS011;48512;48.552;9.380;2022-12-28T11:20:32;4.60;;;3.45;;
62463;SDS011;48512;48.552;9.380;2022-12-28T11:22:59;7.00;;;3.72;;
62463;SDS011;48512;48.552;9.380;2022-12-28T11:25:29;5.30;;;3.10;;
62463;SDS011;48512;48.552;9.380;2022-12-28T11:27:56;4.72;;;3.13;;
62463;SDS011;48512;48.552;9.380;2022-12-28T11:30:22;5.47;;;3.33;;
62463;SDS011;48512;48.552;9.380;2022-12-28T11:32:56;4.47;;;2.80;;
62463;SDS011;48512;48.552;9.380;2022-12-28T11:35:25;5.15;;;3.00;;
62463;SDS011;48512;48.552;9.380;2022-12-28T11:37:58;6.93;;;3.30;;
62463;SDS011;48512;48.552;9.380;2022-12-28T11:45:53;6.43;;;3.72;;
62463;SDS011;48512;48.552;9.380;2022-12-28T11:57:14;5.72;;;3.65;;
62463;SDS011;48512;48.552;9.380;2022-12-28T11:59:24;5.90;;;3.53;;
62463;SDS011;48512;48.552;9.380;2022-12-28T12:01:54;5.75;;;3.67;;
62463;SDS011;48512;48.552;9.380;2022-12-28T12:04:46;7.13;;;3.97;;
62463;SDS011;48512;48.552;9.380;2022-12-28T12:09:44;8.50;;;4.38;;
62463;SDS011;48512;48.552;9.380;2022-12-28T12:17:35;5.10;;;3.05;;
62463;SDS011;48512;48.552;9.380;2022-12-28T12:20:13;5.97;;;3.45;;
62463;SDS011;48512;48.552;9.380;2022-12-28T12:23:01;4.50;;;3.00;;
62463;SDS011;48512;48.552;9.380;2022-12-28T12:28:15;6.78;;;3.70;;
62463;SDS011;48512;48.552;9.380;2022-12-28T12:30:48;5.38;;;3.03;;
62463;SDS011;48512;48.552;9.380;2022-12-28T12:33:23;3.78;;;2.47;;
62463;SDS011;48512;48.552;9.380;2022-12-28T12:39:02;5.32;;;2.88;;
62463;SDS011;48512;48.552;9.380;2022-12-28T12:50:54;9.55;;;3.20;;
62463;SDS011;48512;48.552;9.380;2022-12-28T12:59:23;3.58;;;2.50;;
62463;SDS011;48512;48.552;9.380;2022-12-28T13:04:56;4.00;;;2.40;;
62463;SDS011;48512;48.552;9.380;2022-12-28T13:07:25;3.72;;;2.60;;
62463;SDS011;48512;48.552;9.380;2022-12-28T13:09:56;3.75;;;2.63;;
62463;SDS011;48512;48.552;9.380;2022-12-28T13:12:25;3.50;;;2.40;;
62463;SDS011;48512;48.552;9.380;2022-12-28T13:15:00;3.90;;;2.38;;
62463;SDS011;48512;48.552;9.380;2022-12-28T13:17:27;4.53;;;2.60;;
62463;SDS011;48512;48.552;9.380;2022-12-28T13:22:51;5.18;;;2.35;;
62463;SDS011;48512;48.552;9.380;2022-12-28T13:25:30;4.38;;;2.25;;
62463;SDS011;48512;48.552;9.380;2022-12-28T13:27:58;5.32;;;3.30;;
62463;SDS011;48512;48.552;9.380;2022-12-28T13:30:26;4.50;;;2.60;;
62463;SDS011;48512;48.552;9.380;2022-12-28T13:32:53;3.45;;;2.50;;
62463;SDS011;48512;48.552;9.380;2022-12-28T13:35:21;3.70;;;2.40;;
62463;SDS011;48512;48.552;9.380;2022-12-28T13:40:50;3.78;;;2.15;;
62463;SDS011;48512;48.552;9.380;2022-12-28T13:46:07;4.32;;;2.90;;
62463;SDS011;48512;48.552;9.380;2022-12-28T13:48:40;3.60;;;2.80;;
62463;SDS011;48512;48.552;9.380;2022-12-28T13:51:11;6.20;;;2.95;;
62463;SDS011;48512;48.552;9.380;2022-12-28T13:53:39;5.57;;;2.67;;
62463;SDS011;48512;48.552;9.380;2022-12-28T13:56:09;3.78;;;2.60;;
62463;SDS011;48512;48.552;9.380;2022-12-28T13:58:47;3.83;;;3.13;;
62463;SDS011;48512;48.552;9.380;2022-12-28T14:01:21;9.52;;;3.42;;
62463;SDS011;48512;48.552;9.380;2022-12-28T14:03:50;4.47;;;2.90;;
62463;SDS011;48512;48.552;9.380;2022-12-28T14:06:23;6.72;;;3.10;;
62463;SDS011;48512;48.552;9.380;2022-12-28T14:08:51;5.80;;;3.67;;
62463;SDS011;48512;48.552;9.380;2022-12-28T14:11:16;8.07;;;5.20;;
62463;SDS011;48512;48.552;9.380;2022-12-28T14:13:45;10.00;;;5.88;;
62463;SDS011;48512;48.552;9.380;2022-12-28T14:16:11;8.60;;;3.53;;
62463;SDS011;48512;48.552;9.380;2022-12-28T14:18:37;13.75;;;7.15;;
62463;SDS011;48512;48.552;9.380;2022-12-28T14:21:03;14.63;;;7.43;;
62463;SDS011;48512;48.552;9.380;2022-12-28T14:23:34;38.75;;;17.10;;
62463;SDS011;48512;48.552;9.380;2022-12-28T14:26:04;10.35;;;4.53;;
62463;SDS011;48512;48.552;9.380;2022-12-28T14:31:04;11.75;;;4.43;;
62463;SDS011;48512;48.552;9.380;2022-12-28T14:33:32;4.15;;;3.20;;
62463;SDS011;48512;48.552;9.380;2022-12-28T14:36:05;7.10;;;4.63;;
62463;SDS011;48512;48.552;9.380;2022-12-28T14:38:34;7.63;;;4.63;;
62463;SDS011;48512;48.552;9.380;2022-12-28T14:41:04;7.22;;;4.90;;
62463;SDS011;48512;48.552;9.380;2022-12-28T14:43:30;5.32;;;3.63;;
62463;SDS011;48512;48.552;9.380;2022-12-28T14:46:12;6.13;;;3.92;;
62463;SDS011;48512;48.552;9.380;2022-12-28T14:48:57;7.10;;;3.80;;
62463;SDS011;48512;48.552;9.380;2022-12-28T14:51:32;4.43;;;3.17;;
62463;SDS011;48512;48.552;9.380;2022-12-28T14:54:11;4.70;;;3.50;;
62463;SDS011;48512;48.552;9.380;2022-12-28T14:56:41;4.88;;;3.50;;
62463;SDS011;48512;48.552;9.380;2022-12-28T14:59:16;4.75;;;3.17;;
62463;SDS011;48512;48.552;9.380;2022-12-28T15:08:02;7.30;;;3.20;;
62463;SDS011;48512;48.552;9.380;2022-12-28T15:10:28;4.30;;;2.80;;
62463;SDS011;48512;48.552;9.380;2022-12-28T15:12:53;6.22;;;2.92;;
62463;SDS011;48512;48.552;9.380;2022-12-28T15:15:19;5.05;;;3.20;;
62463;SDS011;48512;48.552;9.380;2022-12-28T15:17:45;6.47;;;3.00;;
62463;SDS011;48512;48.552;9.380;2022-12-28T15:20:11;6.30;;;3.85;;
62463;SDS011;48512;48.552;9.380;2022-12-28T15:22:41;6.30;;;3.00;;
62463;SDS011;48512;48.552;9.380;2022-12-28T15:25:07;8.05;;;5.07;;
62463;SDS011;48512;48.552;9.380;2022-12-28T15:27:32;8.60;;;5.20;;
62463;SDS011;48512;48.552;9.380;2022-12-28T15:29:58;11.20;;;6.20;;
62463;SDS011;48512;48.552;9.380;2022-12-28T15:32:23;7.65;;;4.82;;
62463;SDS011;48512;48.552;9.380;2022-12-28T15:34:49;14.95;;;8.35;;
62463;SDS011;48512;48.552;9.380;2022-12-28T15:37:14;6.25;;;2.67;;
62463;SDS011;48512;48.552;9.380;2022-12-28T15:39:40;4.45;;;2.70;;
62463;SDS011;48512;48.552;9.380;2022-12-28T15:42:05;6.65;;;2.63;;
62463;SDS011;48512;48.552;9.380;2022-12-28T15:44:31;6.50;;;3.38;;
62463;SDS011;48512;48.552;9.380;2022-12-28T15:46:56;4.18;;;2.97;;
62463;SDS011;48512;48.552;9.380;2022-12-28T15:49:22;6.20;;;2.95;;
62463;SDS011;48512;48.552;9.380;2022-12-28T15:51:47;6.20;;;2.67;;
62463;SDS011;48512;48.552;9.380;2022-12-28T15:54:13;5.35;;;3.13;;
62463;SDS011;48512;48.552;9.380;2022-12-28T15:56:39;5.47;;;2.88;;
62463;SDS011;48512;48.552;9.380;2022-12-28T15:59:13;6.90;;;3.33;;
62463;SDS011;48512;48.552;9.380;2022-12-28T16:01:39;7.22;;;3.20;;
62463;SDS011;48512;48.552;9.380;2022-12-28T16:04:07;4.03;;;2.90;;
62463;SDS011;48512;48.552;9.380;2022-12-28T16:06:32;5.63;;;3.13;;
62463;SDS011;48512;48.552;9.380;2022-12-28T16:09:00;4.30;;;2.75;;
62463;SDS011;48512;48.552;9.380;2022-12-28T16:11:26;4.90;;;2.65;;
62463;SDS011;48512;48.552;9.380;2022-12-28T16:13:59;3.83;;;2.80;;
62463;SDS011;48512;48.552;9.380;2022-12-28T16:16:34;4.35;;;3.08;;
62463;SDS011;48512;48.552;9.380;2022-12-28T16:19:04;5.07;;;3.20;;
62463;SDS011;48512;48.552;9.380;2022-12-28T16:21:30;4.47;;;2.65;;
62463;SDS011;48512;48.552;9.380;2022-12-28T16:23:57;3.88;;;2.70;;
62463;SDS011;48512;48.552;9.380;2022-12-28T16:26:26;4.28;;;2.58;;
62463;SDS011;48512;48.552;9.380;2022-12-28T16:28:52;4.20;;;2.83;;
62463;SDS011;48512;48.552;9.380;2022-12-28T16:36:18;5.07;;;3.30;;
62463;SDS011;48512;48.552;9.380;2022-12-28T16:38:44;4.97;;;3.00;;
62463;SDS011;48512;48.552;9.380;2022-12-28T16:41:09;7.10;;;3.70;;
62463;SDS011;48512;48.552;9.380;2022-12-28T16:43:36;6.88;;;4.15;;
62463;SDS011;48512;48.552;9.380;2022-12-28T16:46:05;5.55;;;2.92;;
62463;SDS011;48512;48.552;9.380;2022-12-28T16:48:31;7.35;;;3.40;;
62463;SDS011;48512;48.552;9.380;2022-12-28T16:50:59;7.57;;;3.50;;
62463;SDS011;48512;48.552;9.380;2022-12-28T16:53:28;5.80;;;3.45;;